Observations at @ca for Latest


KACV 231953Z AUTO 06003KT 10SM OVC045 13/10 A3016 RMK AO2 RAE1854 SLP218 P0000
 T01330100=
KAPC 231954Z VRB06KT 10SM CLR 13/08 A3024 RMK AO2 SLP232 T01280083=
KAVX 231951Z AUTO 01004KT 10SM CLR 18/06 A3013 RMK AO2 SLP192 T01830056=
KBAB 231958Z 00000KT 10SM FEW007 BKN110 BKN190 12/10 A3023 RMK AO2A SLP240
 T01170098 $=
KBFL 231954Z 27006KT 3/4SM R30R/P6000FT BR OVC007 11/09 A3022 RMK AO2 SFC VIS 3
 SLP234 T01110089=
KBIH 231956Z AUTO 02004KT 10SM CLR 16/M03 A3022 RMK AO2 SLP222 T01561033=
KBLH 231952Z AUTO 35009KT 10SM CLR 21/03 A3012 RMK AO2 SLP196 T02110033=
KBLU 231952Z AUTO 00000KT 10SM SCT070 11/01 A3027 RMK AO2 SLP217 T01060006=
KBUR 231953Z 27005KT 10SM CLR 22/03 A3010 RMK AO2 SLP183 T02170028=
KBYS 231958Z AUTO 17009KT 10SM CLR 16/02 A3019 RMK AO2 SLP218 T01580022 $=
KCCR 231953Z VRB04KT 10SM CLR 14/09 A3024 RMK AO2 SLP227 T01390089 PNO $=
KCEC 231956Z AUTO 16008KT 9SM SCT024 OVC038 11/09 A3016 RMK AO2 SLP215
 T01060094=
KCIC 231947Z 00000KT 25SM OVC100 09/07 A3026=
KCMA 231955Z 28008KT 10SM CLR 22/10 A3010 RMK AO2 SLP199 T02220100=
KCNO 231953Z 00000KT 10SM SCT200 23/04 A3010 RMK AO2 SLP191 T02280039=
KCQT 231952Z AUTO 25003KT 10SM CLR 23/07 A3008 RMK AO2 SLP186 T02330072=
KCRQ 231953Z 25009KT 8SM CLR 19/12 A3008 RMK AO2 SLP183 T01890117=
KCZZ 231952Z AUTO 06015G22KT 19/M01 A3008 RMK AO1 PK WND 06026/1942 SLP165
 T01941006=
KDAG 231950Z AUTO 00000KT 10SM CLR 17/03 A3020 RMK AO2 SLP218 T01720033=
KEDW 231958Z 00000KT 90SM BKN250 13/05 A3020 RMK AO2A SLP227 T01260050=
KEED 231956Z AUTO 35010KT 10SM CLR 20/04 A3013 RMK AO2 SLP188 T02000039=
KEMT 231945Z 00000KT 10SM CLR 22/06 A3011=
KFAT 231953Z 29003KT 7SM SCT060 BKN200 12/09 A3024 RMK AO2 SLP241 T01220094=
KFCH 231955Z AUTO VRB03KT 10SM CLR 14/13 A3025 RMK A01=
KFUL 231953Z VRB04KT 8SM CLR 21/10 A3008 RMK AO2 SLP186 T02110100=
KHHR 231953Z 27005KT 10SM CLR 21/11 A3010 RMK AO2 SLP192 T02060106 $=
KHJO 231953Z AUTO 00000KT 7SM FEW006 14/10 A3024 RMK AO2 SLP243 T01390100=
KHWD 231954Z 00000KT 10SM BKN220 14/10 A3022 RMK AO2 SLP244 T01440100=
KIPL 231953Z AUTO A3010 RMK AO2 SLPNO PWINO $=
KIZA 231955Z AUTO 00000KT 10SM CLR 18/09 A3014 RMK AO2=
KLAX 231953Z 26006KT 10SM FEW045 FEW080 SCT250 19/12 A3010 RMK AO2 SLP191
 T01940122=
KLGB 231953Z 00000KT 10SM CLR 21/08 A3009 RMK AO2 SLP190 T02060078=
KLPC 231956Z AUTO 00000KT 10SM CLR RMK AO2 SLPNO FZRANO $=
KLVK 231953Z 05008KT 10SM CLR 13/09 A3022 RMK AO2 SLP233 T01330094=
KMAE 231953Z AUTO 00000KT 10SM BKN017 14/10 A3024 RMK AO2 SLP240 T01440100=
KMCC 231955Z AUTO 00000KT 10SM SCT110 12/12 A3024 RMK AO2=
KMCE 231953Z AUTO VRB03KT 10SM OVC020 14/09 A3023 RMK AO2 SLP238 T01390094=
KMHR 231950Z 00000KT 10SM BKN110 13/11 A3023=
KMHS 231956Z AUTO 00000KT 10SM BKN060 OVC085 06/04 A3020 RMK AO2 RAB44E55
 SLP254 P0000 T00610039=
KMHV 231940Z AUTO 06005KT 10SM CLR 15/02 A3023 RMK A01=
KMMH 231858Z AUTO 15003KT 10SM CLR 03/M04 A3032 RMK AO2=
KMMH 231918Z AUTO 14005KT 10SM CLR 04/M04 A3031 RMK AO2=
KMMH 231940Z AUTO 13004KT 10SM SCT120 04/M04 A3030 RMK AO2=
KMOD 231953Z 00000KT 9SM BKN020 14/09 A3023 RMK AO2 SLP237 T01390094=
KMRY 231954Z 00000KT 10SM CLR 18/10 A3019 RMK AO2 SLP234 T01780100=
KMYF 231953Z VRB03KT 10SM CLR 21/09 A3008 RMK AO2 SLP182 T02060089=
KMYV 231953Z AUTO 00000KT 10SM BKN007 BKN110 12/09 A3025 RMK AO2 SLP246
 T01170094=
KNFG 231955Z 00000KT 10SM SCT200 22/09 A3008 RMK AO2 SLP184 T02170094=
KNID 231956Z 00000KT 10SM BKN280 15/02 A3021 RMK AO2 SLP233 T01500022 $=
KNJK 231956Z VRB03KT 10SM FEW250 23/02 A3012 RMK AO2 SLP214 T02280017 $=
KNKX 231955Z 33004KT 10SM CLR 22/10 A3007 RMK AO2 SLP180 T02170100 $=
KNLC 231956Z 01006KT 10SM SCT090 BKN230 14/11 A3024 RMK AO2 SLP239 RH/80
 T01440106=
KNRS 231956Z 30005KT 10SM FEW250 19/11 A3008 RMK AO2 SLP184 T01890111 $=
KNSI 231953Z VRB05KT 10SM FEW000 FEW220 SCT280 17/11 A3012 RMK AO2 SLP195 FG
 FEW000 FG BANK ALG SHORE NW-NE-SE VIRGA OHD T01670111 $=
KNTD 231952Z 28005KT 7SM FEW200 SCT280 20/11 A3008 RMK SLP185 T01960107=
KNUC 231956Z 24003KT 3SM BR SCT003 BKN004 BKN200 15/12 A3012 RMK AO2 SLP198
 T01500117 PNO $=
KNXP 231856Z 00000KT 7SM FEW230 16/02 A3028 RMK AO2 SLP236 T01610017=
KNZY 231952Z 31008KT 9SM SCT250 18/12 A3007 RMK AO2 SLP183 T01830122 $=
KO54 231955Z AUTO 00000KT 10SM OVC006 07/05 A3024 RMK AO1=
KOAK 231953Z 27006KT 10SM SCT180 BKN220 BKN250 14/09 A3023 RMK AO2 SLP237
 T01440094 $=
KONT 231953Z 00000KT 10SM BKN250 22/04 A3010 RMK AO2 SLP185 T02220039=
KOVE 231953Z AUTO 22003KT 10SM OVC100 12/08 A3025 RMK AO2 SLP247 T01170083=
KOXR 231951Z 29012KT 10SM CLR 18/12 A3011 RMK AO2 SLP195 T01780117=
KPAO 231947Z VRB03KT 10SM BKN120 13/09 A3023=
KPMD 231953Z 32006KT 10SM CLR 14/04 A3022 RMK AO2 SLP230 T01390044=
KPOC 231947Z 00000KT 10SM CLR 21/07 A3011=
KPRB 231953Z AUTO 00000KT 10SM CLR 16/11 A3019 RMK AO2 SLP221 T01560106=
KPSP 231953Z 00000KT 10SM CLR 26/02 A3012 RMK AO2 SLP198 T02560022 $=
KPTV 231956Z AUTO VRB04KT 4SM BR OVC004 11/10 A3024 RMK AO2 SLP241 T01110100=
KRAL 231953Z 06007KT 10SM CLR 24/02 A3009 RMK AO2 SLP177 T02390022=
KRBL 231954Z AUTO 33003KT 10SM OVC095 12/08 A3024 RMK AO2 SLP240 T01170078=
KRDD 231953Z 01003KT 10SM OVC090 12/08 A3022 RMK AO2 SLP234 T01170078=
KRHV 231947Z 00000KT 10SM FEW005 BKN090 14/10 A3022=
KRIV 231958Z AUTO 02003KT 10SM CLR 21/05 A3010 RMK AO2 SLP189 T02120051=
KRNM 231953Z 07010KT 10SM CLR 24/02 A3008 RMK AO2 SLP181 T02390022 $=
KSAC 231953Z 00000KT 10SM FEW013 BKN110 14/11 A3024 RMK AO2 SLP239 T01390106=
KSAN 231951Z 30005KT 9SM SCT250 21/13 A3009 RMK AO2 SLP189 T02060128 PNO $=
KSBA 231953Z 25007KT 10SM CLR 19/12 A3012 RMK AO2 SLP199 T01890117=
KSBD 231949Z 00000KT 10SM SKC 24/01 A3011=
KSBP 231956Z 31008KT 10SM CLR 21/10 A3013 RMK AO2 SLP201 T02110100=
KSCK 231955Z 14003KT 7SM BKN019 14/10 A3023 RMK AO2 SLP235 T01390100=
KSDB 231953Z AUTO 06011KT 10SM CLR 14/01 A3024 RMK AO2 SLP213 T01440011 $=
KSDM 231953Z 31005KT 10SM CLR 21/07 A3007 RMK AO2 SLP181 T02110072=
KSEE 231947Z 00000KT 10SM SKC 20/06 A3008=
KSFO 231956Z 06003KT 10SM SCT180 BKN200 13/09 A3022 RMK AO2 SLP233 T01280089=
KSIY 231953Z AUTO 00000KT 10SM BKN003 BKN035 OVC070 04/03 A3021 RMK AO2 SLP254
 T00440028=
KSJC 231953Z 00000KT 8SM FEW001 BKN085 BKN150 14/09 A3022 RMK AO2 SLP231
 T01390094 $=
KSLI 231958Z 22003KT 10SM BKN250 20/13 A3009 RMK AO2A SLP193 T02020127=
KSMF 231953Z 00000KT 5SM BR SCT003 OVC110 10/09 A3024 RMK AO2 SLP240 T01000094=
KSMO 231951Z 20005KT 10SM CLR 19/09 A3010 RMK AO2 SLP192 T01890094=
KSMX 231951Z 00000KT 10SM FEW200 19/09 A3014 RMK AO2 SLP209 T01940089 $=
KSNA 231953Z 23004KT 10SM BKN200 21/09 A3009 RMK AO2 SLP189 T02110089=
KSNS 231953Z 12009KT 10SM CLR 16/11 A3019 RMK AO2 SLP231 T01610106=
KSQL 231847Z VRB03KT 8SM BKN160 12/10 A3026=
KSTS 231953Z 00000KT 10SM BKN110 12/08 A3023 RMK AO2 SLP230 T01220083=
KSUU 231958Z AUTO 36006KT 10SM FEW180 13/09 A3024 RMK AO2 SLP247 T01330090 $=
KSVE 231955Z AUTO 00000KT 10SM OVC080 06/02 A3026 RMK AO2=
KTOA 231847Z 27004KT 10SM SCT250 18/11 A3014=
KTRK 231845Z 00000KT 10SM FEW002 M01/M02 A3032=
KTRM 231952Z AUTO 13007KT 10SM CLR 22/09 A3009 RMK AO2 SLP190 T02220089=
KTVL 231953Z AUTO 00000KT 10SM CLR 04/00 A3029 RMK AO2 SLP258 T00390000=
KUKI 231956Z AUTO 00000KT 10SM SCT100 BKN120 09/06 A3023 RMK AO2 SLP235
 T00940061=
KVBG 231958Z 00000KT 10SM CLR 20/08 A3014 RMK AO2A SLP209 T02000075=
KVCV 231947Z 00000KT 10SM SKC A3021=
KVIS 231956Z AUTO 32005KT 7SM CLR 11/11 A3024 RMK AO2 SLP251 T01060106=
KVNY 231951Z 00000KT 10SM CLR 23/03 A3010 RMK AO2 SLP187 T02280033=
KWJF 231956Z 00000KT 10SM CLR 13/05 A3022 RMK AO2 SLP240 T01330050=
KWVI 231953Z AUTO 12005KT 10SM CLR 18/11 A3020 RMK AO2 SLP224 T01780106=